sensor_id;sensor_type;location;lat;lon;timestamp;P1;durP1;ratioP1;P2;durP2;ratioP2
13309;SDS011;6723;48.256;16.402;2022-07-21T00:01:46;9.50;;;3.60;;
13309;SDS011;6723;48.256;16.402;2022-07-21T00:04:12;9.73;;;3.30;;
13309;SDS011;6723;48.256;16.402;2022-07-21T00:06:38;5.13;;;3.17;;
13309;SDS011;6723;48.256;16.402;2022-07-21T00:09:03;10.33;;;3.43;;
13309;SDS011;6723;48.256;16.402;2022-07-21T00:11:29;7.17;;;3.40;;
13309;SDS011;6723;48.256;16.402;2022-07-21T00:13:55;9.73;;;3.40;;
13309;SDS011;6723;48.256;16.402;2022-07-21T00:16:21;8.60;;;3.53;;
13309;SDS011;6723;48.256;16.402;2022-07-21T00:18:46;6.40;;;3.67;;
13309;SDS011;6723;48.256;16.402;2022-07-21T00:21:12;6.83;;;3.30;;
13309;SDS011;6723;48.256;16.402;2022-07-21T00:26:33;6.50;;;3.10;;
13309;SDS011;6723;48.256;16.402;2022-07-21T00:28:59;9.73;;;3.40;;
13309;SDS011;6723;48.256;16.402;2022-07-21T00:31:24;8.33;;;3.30;;
13309;SDS011;6723;48.256;16.402;2022-07-21T00:33:50;6.73;;;3.20;;
13309;SDS011;6723;48.256;16.402;2022-07-21T00:36:17;3.77;;;3.27;;
13309;SDS011;6723;48.256;16.402;2022-07-21T00:38:43;9.00;;;3.50;;
13309;SDS011;6723;48.256;16.402;2022-07-21T00:41:09;5.00;;;2.97;;
13309;SDS011;6723;48.256;16.402;2022-07-21T00:43:34;5.57;;;3.40;;
13309;SDS011;6723;48.256;16.402;2022-07-21T00:46:00;4.60;;;2.90;;
13309;SDS011;6723;48.256;16.402;2022-07-21T00:48:26;6.77;;;3.43;;
13309;SDS011;6723;48.256;16.402;2022-07-21T00:50:52;6.37;;;3.27;;
13309;SDS011;6723;48.256;16.402;2022-07-21T00:53:18;6.50;;;3.40;;
13309;SDS011;6723;48.256;16.402;2022-07-21T00:55:44;6.23;;;2.90;;
13309;SDS011;6723;48.256;16.402;2022-07-21T00:58:11;5.60;;;3.33;;
13309;SDS011;6723;48.256;16.402;2022-07-21T01:00:38;8.83;;;3.23;;
13309;SDS011;6723;48.256;16.402;2022-07-21T01:03:05;6.87;;;3.20;;
13309;SDS011;6723;48.256;16.402;2022-07-21T01:05:32;5.23;;;3.10;;
13309;SDS011;6723;48.256;16.402;2022-07-21T01:07:58;4.97;;;3.17;;
13309;SDS011;6723;48.256;16.402;2022-07-21T01:10:27;10.27;;;3.30;;
13309;SDS011;6723;48.256;16.402;2022-07-21T01:12:55;6.63;;;3.20;;
13309;SDS011;6723;48.256;16.402;2022-07-21T01:15:22;7.93;;;3.50;;
13309;SDS011;6723;48.256;16.402;2022-07-21T01:17:49;7.33;;;3.23;;
13309;SDS011;6723;48.256;16.402;2022-07-21T01:20:17;5.23;;;3.17;;
13309;SDS011;6723;48.256;16.402;2022-07-21T01:22:46;6.50;;;2.97;;
13309;SDS011;6723;48.256;16.402;2022-07-21T01:25:13;8.70;;;3.70;;
13309;SDS011;6723;48.256;16.402;2022-07-21T01:27:40;10.10;;;3.43;;
13309;SDS011;6723;48.256;16.402;2022-07-21T01:30:07;6.23;;;3.43;;
13309;SDS011;6723;48.256;16.402;2022-07-21T01:32:35;6.83;;;3.20;;
13309;SDS011;6723;48.256;16.402;2022-07-21T01:35:02;6.17;;;2.90;;
13309;SDS011;6723;48.256;16.402;2022-07-21T01:37:30;6.67;;;2.90;;
13309;SDS011;6723;48.256;16.402;2022-07-21T01:39:58;4.13;;;2.67;;
13309;SDS011;6723;48.256;16.402;2022-07-21T01:42:43;6.80;;;3.30;;
13309;SDS011;6723;48.256;16.402;2022-07-21T01:45:09;5.80;;;3.37;;
13309;SDS011;6723;48.256;16.402;2022-07-21T01:47:35;5.63;;;3.30;;
13309;SDS011;6723;48.256;16.402;2022-07-21T01:50:00;9.70;;;3.50;;
13309;SDS011;6723;48.256;16.402;2022-07-21T01:52:27;5.27;;;3.43;;
13309;SDS011;6723;48.256;16.402;2022-07-21T01:54:52;6.60;;;3.10;;
13309;SDS011;6723;48.256;16.402;2022-07-21T01:57:18;5.83;;;3.00;;
13309;SDS011;6723;48.256;16.402;2022-07-21T01:59:44;6.77;;;3.17;;
13309;SDS011;6723;48.256;16.402;2022-07-21T02:02:10;5.17;;;3.43;;
13309;SDS011;6723;48.256;16.402;2022-07-21T02:04:36;5.67;;;3.00;;
13309;SDS011;6723;48.256;16.402;2022-07-21T02:07:02;8.47;;;3.60;;
13309;SDS011;6723;48.256;16.402;2022-07-21T02:09:28;6.80;;;3.53;;
13309;SDS011;6723;48.256;16.402;2022-07-21T02:11:54;6.03;;;3.20;;
13309;SDS011;6723;48.256;16.402;2022-07-21T02:14:20;8.80;;;3.50;;
13309;SDS011;6723;48.256;16.402;2022-07-21T02:16:46;9.57;;;3.50;;
13309;SDS011;6723;48.256;16.402;2022-07-21T02:19:12;4.67;;;3.30;;
13309;SDS011;6723;48.256;16.402;2022-07-21T02:21:38;6.53;;;3.77;;
13309;SDS011;6723;48.256;16.402;2022-07-21T02:24:04;5.57;;;3.80;;
13309;SDS011;6723;48.256;16.402;2022-07-21T02:26:31;3.97;;;3.40;;
13309;SDS011;6723;48.256;16.402;2022-07-21T02:28:57;4.67;;;3.40;;
13309;SDS011;6723;48.256;16.402;2022-07-21T02:31:23;8.20;;;3.43;;
13309;SDS011;6723;48.256;16.402;2022-07-21T02:33:48;6.17;;;3.40;;
13309;SDS011;6723;48.256;16.402;2022-07-21T02:36:14;7.30;;;3.50;;
13309;SDS011;6723;48.256;16.402;2022-07-21T02:38:40;7.57;;;3.90;;
13309;SDS011;6723;48.256;16.402;2022-07-21T02:41:06;5.20;;;3.40;;
13309;SDS011;6723;48.256;16.402;2022-07-21T02:43:31;7.47;;;3.50;;
13309;SDS011;6723;48.256;16.402;2022-07-21T02:45:58;8.73;;;4.00;;
13309;SDS011;6723;48.256;16.402;2022-07-21T02:48:24;7.30;;;3.90;;
13309;SDS011;6723;48.256;16.402;2022-07-21T02:50:49;4.60;;;3.60;;
13309;SDS011;6723;48.256;16.402;2022-07-21T02:53:16;4.20;;;3.40;;
13309;SDS011;6723;48.256;16.402;2022-07-21T02:55:45;10.37;;;3.80;;
13309;SDS011;6723;48.256;16.402;2022-07-21T02:58:16;6.77;;;3.60;;
13309;SDS011;6723;48.256;16.402;2022-07-21T03:00:48;6.57;;;3.53;;
13309;SDS011;6723;48.256;16.402;2022-07-21T03:03:16;7.20;;;3.90;;
13309;SDS011;6723;48.256;16.402;2022-07-21T03:05:43;8.67;;;3.70;;
13309;SDS011;6723;48.256;16.402;2022-07-21T03:08:09;5.70;;;3.50;;
13309;SDS011;6723;48.256;16.402;2022-07-21T03:10:36;3.60;;;3.20;;
13309;SDS011;6723;48.256;16.402;2022-07-21T03:13:03;8.17;;;3.80;;
13309;SDS011;6723;48.256;16.402;2022-07-21T03:15:30;8.97;;;3.97;;
13309;SDS011;6723;48.256;16.402;2022-07-21T03:17:57;4.83;;;3.50;;
13309;SDS011;6723;48.256;16.402;2022-07-21T03:20:27;4.10;;;3.43;;
13309;SDS011;6723;48.256;16.402;2022-07-21T03:22:54;4.63;;;3.20;;
13309;SDS011;6723;48.256;16.402;2022-07-21T03:25:20;5.13;;;3.67;;
13309;SDS011;6723;48.256;16.402;2022-07-21T03:27:47;8.10;;;3.90;;
13309;SDS011;6723;48.256;16.402;2022-07-21T03:30:14;5.47;;;3.13;;
13309;SDS011;6723;48.256;16.402;2022-07-21T03:32:41;6.17;;;3.93;;
13309;SDS011;6723;48.256;16.402;2022-07-21T03:35:08;9.23;;;3.53;;
13309;SDS011;6723;48.256;16.402;2022-07-21T03:40:14;7.10;;;3.97;;
13309;SDS011;6723;48.256;16.402;2022-07-21T03:42:42;4.93;;;3.83;;
13309;SDS011;6723;48.256;16.402;2022-07-21T03:45:08;7.80;;;3.60;;
13309;SDS011;6723;48.256;16.402;2022-07-21T03:47:35;4.47;;;3.60;;
13309;SDS011;6723;48.256;16.402;2022-07-21T03:50:01;6.07;;;3.70;;
13309;SDS011;6723;48.256;16.402;2022-07-21T03:52:29;11.07;;;3.70;;
13309;SDS011;6723;48.256;16.402;2022-07-21T03:54:54;7.33;;;3.77;;
13309;SDS011;6723;48.256;16.402;2022-07-21T03:57:44;7.13;;;3.50;;
13309;SDS011;6723;48.256;16.402;2022-07-21T04:00:14;13.17;;;4.20;;
13309;SDS011;6723;48.256;16.402;2022-07-21T04:02:42;4.70;;;3.53;;
13309;SDS011;6723;48.256;16.402;2022-07-21T04:05:09;5.70;;;4.00;;
13309;SDS011;6723;48.256;16.402;2022-07-21T04:07:36;7.73;;;3.87;;
13309;SDS011;6723;48.256;16.402;2022-07-21T04:10:03;6.27;;;3.77;;
13309;SDS011;6723;48.256;16.402;2022-07-21T04:12:30;11.30;;;4.00;;
13309;SDS011;6723;48.256;16.402;2022-07-21T04:14:55;8.33;;;4.13;;
13309;SDS011;6723;48.256;16.402;2022-07-21T04:17:21;7.23;;;3.67;;
13309;SDS011;6723;48.256;16.402;2022-07-21T04:19:47;6.13;;;3.63;;
13309;SDS011;6723;48.256;16.402;2022-07-21T04:22:14;8.20;;;3.67;;
13309;SDS011;6723;48.256;16.402;2022-07-21T04:24:40;6.57;;;3.93;;
13309;SDS011;6723;48.256;16.402;2022-07-21T04:27:06;9.10;;;3.87;;
13309;SDS011;6723;48.256;16.402;2022-07-21T04:29:32;5.33;;;3.77;;
13309;SDS011;6723;48.256;16.402;2022-07-21T04:31:58;10.60;;;3.60;;
13309;SDS011;6723;48.256;16.402;2022-07-21T04:34:24;6.83;;;3.30;;
13309;SDS011;6723;48.256;16.402;2022-07-21T04:39:38;6.27;;;4.10;;
13309;SDS011;6723;48.256;16.402;2022-07-21T04:42:04;7.37;;;4.40;;
13309;SDS011;6723;48.256;16.402;2022-07-21T04:44:30;7.63;;;5.70;;
13309;SDS011;6723;48.256;16.402;2022-07-21T04:46:56;9.10;;;5.77;;
13309;SDS011;6723;48.256;16.402;2022-07-21T04:49:22;9.37;;;4.30;;
13309;SDS011;6723;48.256;16.402;2022-07-21T04:51:51;12.77;;;4.33;;
13309;SDS011;6723;48.256;16.402;2022-07-21T04:54:17;14.33;;;4.37;;
13309;SDS011;6723;48.256;16.402;2022-07-21T04:56:43;13.27;;;4.10;;
13309;SDS011;6723;48.256;16.402;2022-07-21T04:59:10;7.23;;;4.20;;
13309;SDS011;6723;48.256;16.402;2022-07-21T05:01:37;9.43;;;3.80;;
13309;SDS011;6723;48.256;16.402;2022-07-21T05:04:03;10.77;;;4.50;;
13309;SDS011;6723;48.256;16.402;2022-07-21T05:06:30;6.50;;;3.73;;
13309;SDS011;6723;48.256;16.402;2022-07-21T05:08:57;10.50;;;4.03;;
13309;SDS011;6723;48.256;16.402;2022-07-21T05:11:23;7.83;;;3.50;;
13309;SDS011;6723;48.256;16.402;2022-07-21T05:13:49;6.23;;;3.47;;
13309;SDS011;6723;48.256;16.402;2022-07-21T05:16:16;7.17;;;3.77;;
13309;SDS011;6723;48.256;16.402;2022-07-21T05:18:42;8.80;;;4.10;;
13309;SDS011;6723;48.256;16.402;2022-07-21T05:21:07;5.67;;;3.50;;
13309;SDS011;6723;48.256;16.402;2022-07-21T05:23:33;11.97;;;3.37;;
13309;SDS011;6723;48.256;16.402;2022-07-21T05:25:59;8.80;;;3.93;;
13309;SDS011;6723;48.256;16.402;2022-07-21T05:28:26;8.77;;;4.00;;
13309;SDS011;6723;48.256;16.402;2022-07-21T05:30:52;12.33;;;4.20;;
13309;SDS011;6723;48.256;16.402;2022-07-21T05:33:18;7.00;;;3.77;;
13309;SDS011;6723;48.256;16.402;2022-07-21T05:35:44;14.67;;;3.97;;
13309;SDS011;6723;48.256;16.402;2022-07-21T05:38:10;9.27;;;3.57;;
13309;SDS011;6723;48.256;16.402;2022-07-21T05:40:36;10.53;;;4.37;;
13309;SDS011;6723;48.256;16.402;2022-07-21T05:43:01;11.30;;;4.37;;
13309;SDS011;6723;48.256;16.402;2022-07-21T05:45:27;8.17;;;4.13;;
13309;SDS011;6723;48.256;16.402;2022-07-21T05:47:53;11.70;;;4.57;;
13309;SDS011;6723;48.256;16.402;2022-07-21T05:50:19;13.43;;;4.47;;
13309;SDS011;6723;48.256;16.402;2022-07-21T05:52:45;11.60;;;4.70;;
13309;SDS011;6723;48.256;16.402;2022-07-21T05:55:10;10.80;;;5.60;;
13309;SDS011;6723;48.256;16.402;2022-07-21T05:57:37;14.67;;;5.80;;
13309;SDS011;6723;48.256;16.402;2022-07-21T06:00:04;16.53;;;6.07;;
13309;SDS011;6723;48.256;16.402;2022-07-21T06:02:30;12.07;;;5.87;;
13309;SDS011;6723;48.256;16.402;2022-07-21T06:04:58;12.33;;;5.93;;
13309;SDS011;6723;48.256;16.402;2022-07-21T06:07:24;9.40;;;6.30;;
13309;SDS011;6723;48.256;16.402;2022-07-21T06:09:50;11.03;;;6.37;;
13309;SDS011;6723;48.256;16.402;2022-07-21T06:12:16;10.80;;;6.50;;
13309;SDS011;6723;48.256;16.402;2022-07-21T06:14:42;12.30;;;6.57;;
13309;SDS011;6723;48.256;16.402;2022-07-21T06:17:07;16.93;;;6.83;;
13309;SDS011;6723;48.256;16.402;2022-07-21T06:19:33;11.83;;;7.53;;
13309;SDS011;6723;48.256;16.402;2022-07-21T06:21:59;15.63;;;7.00;;
13309;SDS011;6723;48.256;16.402;2022-07-21T06:24:25;12.97;;;7.00;;
13309;SDS011;6723;48.256;16.402;2022-07-21T06:26:52;8.17;;;7.37;;
13309;SDS011;6723;48.256;16.402;2022-07-21T06:29:20;13.07;;;7.77;;
13309;SDS011;6723;48.256;16.402;2022-07-21T06:31:47;14.97;;;7.40;;
13309;SDS011;6723;48.256;16.402;2022-07-21T06:34:13;14.90;;;7.50;;
13309;SDS011;6723;48.256;16.402;2022-07-21T06:36:38;14.67;;;7.67;;
13309;SDS011;6723;48.256;16.402;2022-07-21T06:39:04;16.50;;;7.90;;
13309;SDS011;6723;48.256;16.402;2022-07-21T06:41:30;8.83;;;7.40;;
13309;SDS011;6723;48.256;16.402;2022-07-21T06:43:56;10.30;;;7.70;;
13309;SDS011;6723;48.256;16.402;2022-07-21T06:46:23;11.87;;;7.77;;
13309;SDS011;6723;48.256;16.402;2022-07-21T06:48:49;13.73;;;7.97;;
13309;SDS011;6723;48.256;16.402;2022-07-21T06:51:16;12.80;;;8.60;;
13309;SDS011;6723;48.256;16.402;2022-07-21T06:53:42;8.80;;;7.53;;
13309;SDS011;6723;48.256;16.402;2022-07-21T06:56:08;13.03;;;7.63;;
13309;SDS011;6723;48.256;16.402;2022-07-21T06:58:34;12.07;;;7.70;;
13309;SDS011;6723;48.256;16.402;2022-07-21T07:01:00;12.40;;;7.90;;
13309;SDS011;6723;48.256;16.402;2022-07-21T07:03:26;10.70;;;7.30;;
13309;SDS011;6723;48.256;16.402;2022-07-21T07:05:52;13.13;;;8.00;;
13309;SDS011;6723;48.256;16.402;2022-07-21T07:08:17;13.93;;;7.30;;
13309;SDS011;6723;48.256;16.402;2022-07-21T07:10:44;10.80;;;7.57;;
13309;SDS011;6723;48.256;16.402;2022-07-21T07:13:11;12.20;;;8.10;;
13309;SDS011;6723;48.256;16.402;2022-07-21T07:15:40;11.77;;;7.00;;
13309;SDS011;6723;48.256;16.402;2022-07-21T07:18:06;12.77;;;7.70;;
13309;SDS011;6723;48.256;16.402;2022-07-21T07:20:32;13.80;;;7.40;;
13309;SDS011;6723;48.256;16.402;2022-07-21T07:22:58;14.23;;;6.97;;
13309;SDS011;6723;48.256;16.402;2022-07-21T07:25:24;7.90;;;6.90;;
13309;SDS011;6723;48.256;16.402;2022-07-21T07:27:50;11.70;;;7.20;;
13309;SDS011;6723;48.256;16.402;2022-07-21T07:30:17;7.65;;;6.60;;
13309;SDS011;6723;48.256;16.402;2022-07-21T07:32:44;10.45;;;6.50;;
13309;SDS011;6723;48.256;16.402;2022-07-21T07:35:11;9.15;;;6.25;;
13309;SDS011;6723;48.256;16.402;2022-07-21T07:37:37;9.65;;;6.20;;
13309;SDS011;6723;48.256;16.402;2022-07-21T07:40:06;11.07;;;5.85;;
13309;SDS011;6723;48.256;16.402;2022-07-21T07:42:35;9.05;;;5.57;;
13309;SDS011;6723;48.256;16.402;2022-07-21T07:45:02;6.43;;;5.25;;
13309;SDS011;6723;48.256;16.402;2022-07-21T07:47:30;7.53;;;4.90;;
13309;SDS011;6723;48.256;16.402;2022-07-21T07:49:56;7.60;;;5.20;;
13309;SDS011;6723;48.256;16.402;2022-07-21T07:52:22;6.38;;;4.95;;
13309;SDS011;6723;48.256;16.402;2022-07-21T07:54:48;8.40;;;5.35;;
13309;SDS011;6723;48.256;16.402;2022-07-21T07:57:14;7.00;;;5.05;;
13309;SDS011;6723;48.256;16.402;2022-07-21T07:59:40;9.23;;;4.90;;
13309;SDS011;6723;48.256;16.402;2022-07-21T08:02:06;8.52;;;4.45;;
13309;SDS011;6723;48.256;16.402;2022-07-21T08:04:32;6.20;;;4.30;;
13309;SDS011;6723;48.256;16.402;2022-07-21T08:06:58;6.75;;;4.45;;
13309;SDS011;6723;48.256;16.402;2022-07-21T08:09:23;6.65;;;4.68;;
13309;SDS011;6723;48.256;16.402;2022-07-21T08:11:49;7.32;;;4.68;;
13309;SDS011;6723;48.256;16.402;2022-07-21T08:14:17;6.72;;;4.97;;
13309;SDS011;6723;48.256;16.402;2022-07-21T08:16:42;8.48;;;4.70;;
13309;SDS011;6723;48.256;16.402;2022-07-21T08:19:09;8.13;;;4.50;;
13309;SDS011;6723;48.256;16.402;2022-07-21T08:21:35;4.75;;;4.15;;
13309;SDS011;6723;48.256;16.402;2022-07-21T08:24:01;6.75;;;3.90;;
13309;SDS011;6723;48.256;16.402;2022-07-21T08:26:27;6.22;;;3.72;;
13309;SDS011;6723;48.256;16.402;2022-07-21T08:28:53;6.15;;;3.95;;
13309;SDS011;6723;48.256;16.402;2022-07-21T08:31:20;4.07;;;3.63;;
13309;SDS011;6723;48.256;16.402;2022-07-21T08:33:46;6.05;;;3.60;;
13309;SDS011;6723;48.256;16.402;2022-07-21T08:36:12;4.88;;;3.65;;
13309;SDS011;6723;48.256;16.402;2022-07-21T08:38:37;5.25;;;3.40;;
13309;SDS011;6723;48.256;16.402;2022-07-21T08:41:03;4.85;;;3.33;;
13309;SDS011;6723;48.256;16.402;2022-07-21T08:43:29;5.10;;;3.10;;
13309;SDS011;6723;48.256;16.402;2022-07-21T08:45:56;5.30;;;3.40;;
13309;SDS011;6723;48.256;16.402;2022-07-21T08:48:25;4.80;;;3.28;;
13309;SDS011;6723;48.256;16.402;2022-07-21T08:50:53;8.43;;;3.60;;
13309;SDS011;6723;48.256;16.402;2022-07-21T08:53:19;7.10;;;3.50;;
13309;SDS011;6723;48.256;16.402;2022-07-21T08:55:44;5.20;;;2.90;;
13309;SDS011;6723;48.256;16.402;2022-07-21T08:58:11;6.65;;;3.53;;
13309;SDS011;6723;48.256;16.402;2022-07-21T09:00:38;6.85;;;3.40;;
13309;SDS011;6723;48.256;16.402;2022-07-21T09:03:09;3.85;;;3.17;;
13309;SDS011;6723;48.256;16.402;2022-07-21T09:05:39;3.75;;;3.42;;
13309;SDS011;6723;48.256;16.402;2022-07-21T09:08:06;6.07;;;3.15;;
13309;SDS011;6723;48.256;16.402;2022-07-21T09:10:32;6.53;;;3.50;;
13309;SDS011;6723;48.256;16.402;2022-07-21T09:13:00;5.30;;;3.40;;
13309;SDS011;6723;48.256;16.402;2022-07-21T09:15:28;5.45;;;3.40;;
13309;SDS011;6723;48.256;16.402;2022-07-21T09:18:12;5.13;;;3.30;;
13309;SDS011;6723;48.256;16.402;2022-07-21T09:20:48;5.40;;;3.35;;
13309;SDS011;6723;48.256;16.402;2022-07-21T09:23:17;4.70;;;3.42;;
13309;SDS011;6723;48.256;16.402;2022-07-21T09:25:46;5.05;;;3.22;;
13309;SDS011;6723;48.256;16.402;2022-07-21T09:30:50;7.93;;;2.80;;
13309;SDS011;6723;48.256;16.402;2022-07-21T09:33:27;5.63;;;3.00;;
13309;SDS011;6723;48.256;16.402;2022-07-21T09:38:28;3.42;;;3.10;;
13309;SDS011;6723;48.256;16.402;2022-07-21T09:40:55;6.10;;;3.00;;
13309;SDS011;6723;48.256;16.402;2022-07-21T09:43:30;3.83;;;2.63;;
13309;SDS011;6723;48.256;16.402;2022-07-21T09:46:02;4.30;;;2.83;;
13309;SDS011;6723;48.256;16.402;2022-07-21T09:48:32;7.72;;;3.50;;
13309;SDS011;6723;48.256;16.402;2022-07-21T09:51:19;3.67;;;3.20;;
13309;SDS011;6723;48.256;16.402;2022-07-21T09:54:18;7.93;;;3.67;;
13309;SDS011;6723;48.256;16.402;2022-07-21T09:56:39;5.82;;;3.30;;
13309;SDS011;6723;48.256;16.402;2022-07-21T09:59:08;7.13;;;3.28;;
13309;SDS011;6723;48.256;16.402;2022-07-21T10:01:36;5.65;;;3.60;;
13309;SDS011;6723;48.256;16.402;2022-07-21T10:04:03;7.05;;;3.83;;
13309;SDS011;6723;48.256;16.402;2022-07-21T10:06:33;6.15;;;4.20;;
13309;SDS011;6723;48.256;16.402;2022-07-21T10:09:02;8.40;;;4.32;;
13309;SDS011;6723;48.256;16.402;2022-07-21T10:11:30;6.00;;;4.13;;
13309;SDS011;6723;48.256;16.402;2022-07-21T10:13:56;6.20;;;4.25;;
13309;SDS011;6723;48.256;16.402;2022-07-21T10:16:22;6.55;;;4.35;;
13309;SDS011;6723;48.256;16.402;2022-07-21T10:18:58;12.63;;;5.00;;
13309;SDS011;6723;48.256;16.402;2022-07-21T10:24:06;6.45;;;5.30;;
13309;SDS011;6723;48.256;16.402;2022-07-21T10:26:36;6.53;;;5.30;;
13309;SDS011;6723;48.256;16.402;2022-07-21T10:29:03;11.13;;;4.60;;
13309;SDS011;6723;48.256;16.402;2022-07-21T10:31:28;10.27;;;4.80;;
13309;SDS011;6723;48.256;16.402;2022-07-21T10:33:56;8.45;;;5.18;;
13309;SDS011;6723;48.256;16.402;2022-07-21T10:41:41;11.05;;;5.60;;
13309;SDS011;6723;48.256;16.402;2022-07-21T10:47:02;7.20;;;5.57;;
13309;SDS011;6723;48.256;16.402;2022-07-21T10:57:37;7.65;;;5.38;;
13309;SDS011;6723;48.256;16.402;2022-07-21T11:05:23;9.65;;;4.97;;
13309;SDS011;6723;48.256;16.402;2022-07-21T11:10:40;7.88;;;5.55;;
13309;SDS011;6723;48.256;16.402;2022-07-21T11:13:08;8.68;;;5.95;;
13309;SDS011;6723;48.256;16.402;2022-07-21T11:18:19;5.85;;;5.25;;
13309;SDS011;6723;48.256;16.402;2022-07-21T11:21:05;5.93;;;5.38;;
13309;SDS011;6723;48.256;16.402;2022-07-21T11:23:45;7.00;;;4.95;;
13309;SDS011;6723;48.256;16.402;2022-07-21T11:26:14;8.32;;;5.00;;
13309;SDS011;6723;48.256;16.402;2022-07-21T11:28:43;7.82;;;5.45;;
13309;SDS011;6723;48.256;16.402;2022-07-21T11:31:10;6.60;;;5.13;;
13309;SDS011;6723;48.256;16.402;2022-07-21T11:33:39;8.00;;;5.10;;
13309;SDS011;6723;48.256;16.402;2022-07-21T11:36:07;9.23;;;5.28;;
13309;SDS011;6723;48.256;16.402;2022-07-21T11:38:33;8.35;;;5.75;;
13309;SDS011;6723;48.256;16.402;2022-07-21T11:41:12;9.50;;;5.55;;
13309;SDS011;6723;48.256;16.402;2022-07-21T11:49:47;6.72;;;5.05;;
13309;SDS011;6723;48.256;16.402;2022-07-21T11:52:16;6.10;;;5.53;;
13309;SDS011;6723;48.256;16.402;2022-07-21T11:54:44;8.13;;;5.25;;
13309;SDS011;6723;48.256;16.402;2022-07-21T11:57:12;6.95;;;5.10;;
13309;SDS011;6723;48.256;16.402;2022-07-21T11:59:40;8.05;;;5.03;;
13309;SDS011;6723;48.256;16.402;2022-07-21T12:02:10;7.72;;;5.32;;
13309;SDS011;6723;48.256;16.402;2022-07-21T12:10:24;6.20;;;5.10;;
13309;SDS011;6723;48.256;16.402;2022-07-21T12:12:57;9.30;;;5.25;;
13309;SDS011;6723;48.256;16.402;2022-07-21T12:15:28;7.03;;;5.00;;
13309;SDS011;6723;48.256;16.402;2022-07-21T12:18:00;7.50;;;4.70;;
13309;SDS011;6723;48.256;16.402;2022-07-21T12:20:38;5.32;;;4.85;;
13309;SDS011;6723;48.256;16.402;2022-07-21T12:25:45;5.70;;;5.00;;
13309;SDS011;6723;48.256;16.402;2022-07-21T12:28:11;9.05;;;5.47;;
13309;SDS011;6723;48.256;16.402;2022-07-21T12:30:38;9.15;;;5.25;;
13309;SDS011;6723;48.256;16.402;2022-07-21T12:33:16;9.00;;;5.13;;
13309;SDS011;6723;48.256;16.402;2022-07-21T12:35:56;7.97;;;5.47;;
13309;SDS011;6723;48.256;16.402;2022-07-21T12:38:37;9.07;;;5.20;;
13309;SDS011;6723;48.256;16.402;2022-07-21T12:41:09;5.93;;;4.88;;
13309;SDS011;6723;48.256;16.402;2022-07-21T12:43:36;8.07;;;5.13;;
13309;SDS011;6723;48.256;16.402;2022-07-21T12:46:13;8.85;;;5.10;;
13309;SDS011;6723;48.256;16.402;2022-07-21T12:48:40;6.53;;;5.43;;
13309;SDS011;6723;48.256;16.402;2022-07-21T12:51:09;7.85;;;5.50;;
13309;SDS011;6723;48.256;16.402;2022-07-21T12:53:45;6.82;;;5.72;;
13309;SDS011;6723;48.256;16.402;2022-07-21T12:56:21;6.03;;;5.10;;
13309;SDS011;6723;48.256;16.402;2022-07-21T12:58:59;8.23;;;5.43;;
13309;SDS011;6723;48.256;16.402;2022-07-21T13:01:27;8.65;;;5.03;;
13309;SDS011;6723;48.256;16.402;2022-07-21T13:03:56;5.72;;;5.22;;
13309;SDS011;6723;48.256;16.402;2022-07-21T13:06:22;7.15;;;5.00;;
13309;SDS011;6723;48.256;16.402;2022-07-21T13:08:49;6.30;;;5.35;;
13309;SDS011;6723;48.256;16.402;2022-07-21T13:11:17;12.18;;;7.57;;
13309;SDS011;6723;48.256;16.402;2022-07-21T13:13:48;6.80;;;5.22;;
13309;SDS011;6723;48.256;16.402;2022-07-21T13:16:16;9.57;;;5.40;;
13309;SDS011;6723;48.256;16.402;2022-07-21T13:18:42;6.57;;;5.90;;
13309;SDS011;6723;48.256;16.402;2022-07-21T13:21:08;9.90;;;5.22;;
13309;SDS011;6723;48.256;16.402;2022-07-21T13:23:34;6.50;;;5.90;;
13309;SDS011;6723;48.256;16.402;2022-07-21T13:26:00;7.82;;;5.63;;
13309;SDS011;6723;48.256;16.402;2022-07-21T13:28:26;8.30;;;6.70;;
13309;SDS011;6723;48.256;16.402;2022-07-21T13:30:52;8.15;;;6.07;;
13309;SDS011;6723;48.256;16.402;2022-07-21T13:33:18;9.38;;;5.90;;
13309;SDS011;6723;48.256;16.402;2022-07-21T13:35:44;6.50;;;5.80;;
13309;SDS011;6723;48.256;16.402;2022-07-21T13:38:10;8.98;;;6.00;;
13309;SDS011;6723;48.256;16.402;2022-07-21T13:40:36;7.72;;;7.03;;
13309;SDS011;6723;48.256;16.402;2022-07-21T13:43:03;10.60;;;6.20;;
13309;SDS011;6723;48.256;16.402;2022-07-21T13:45:30;8.88;;;6.57;;
13309;SDS011;6723;48.256;16.402;2022-07-21T13:47:56;6.60;;;5.75;;
13309;SDS011;6723;48.256;16.402;2022-07-21T13:50:22;9.07;;;5.95;;
13309;SDS011;6723;48.256;16.402;2022-07-21T13:52:48;10.38;;;6.60;;
13309;SDS011;6723;48.256;16.402;2022-07-21T13:55:13;10.20;;;6.35;;
13309;SDS011;6723;48.256;16.402;2022-07-21T13:57:39;7.63;;;5.40;;
13309;SDS011;6723;48.256;16.402;2022-07-21T14:00:06;7.05;;;5.65;;
13309;SDS011;6723;48.256;16.402;2022-07-21T14:02:35;11.57;;;5.70;;
13309;SDS011;6723;48.256;16.402;2022-07-21T14:05:01;12.30;;;6.05;;
13309;SDS011;6723;48.256;16.402;2022-07-21T14:07:29;6.70;;;6.00;;
13309;SDS011;6723;48.256;16.402;2022-07-21T14:09:55;8.50;;;5.75;;
13309;SDS011;6723;48.256;16.402;2022-07-21T14:12:21;8.25;;;5.43;;
13309;SDS011;6723;48.256;16.402;2022-07-21T14:14:47;6.68;;;5.78;;
13309;SDS011;6723;48.256;16.402;2022-07-21T14:17:16;8.40;;;5.90;;
13309;SDS011;6723;48.256;16.402;2022-07-21T14:19:43;8.25;;;5.50;;
13309;SDS011;6723;48.256;16.402;2022-07-21T14:22:13;7.28;;;5.72;;
13309;SDS011;6723;48.256;16.402;2022-07-21T14:24:39;7.90;;;6.15;;
13309;SDS011;6723;48.256;16.402;2022-07-21T14:27:24;7.25;;;5.88;;
13309;SDS011;6723;48.256;16.402;2022-07-21T14:29:49;6.72;;;5.70;;
13309;SDS011;6723;48.256;16.402;2022-07-21T14:32:17;7.13;;;5.90;;
13309;SDS011;6723;48.256;16.402;2022-07-21T14:34:50;7.35;;;6.55;;
13309;SDS011;6723;48.256;16.402;2022-07-21T14:37:17;8.60;;;6.60;;
13309;SDS011;6723;48.256;16.402;2022-07-21T14:39:44;7.20;;;6.30;;
13309;SDS011;6723;48.256;16.402;2022-07-21T14:42:11;7.63;;;6.10;;
13309;SDS011;6723;48.256;16.402;2022-07-21T14:44:37;6.45;;;5.80;;
13309;SDS011;6723;48.256;16.402;2022-07-21T14:47:04;9.45;;;6.10;;
13309;SDS011;6723;48.256;16.402;2022-07-21T14:49:32;8.63;;;6.28;;
13309;SDS011;6723;48.256;16.402;2022-07-21T14:52:01;6.20;;;5.60;;
13309;SDS011;6723;48.256;16.402;2022-07-21T14:54:27;9.13;;;6.05;;
13309;SDS011;6723;48.256;16.402;2022-07-21T14:56:53;8.50;;;5.93;;
13309;SDS011;6723;48.256;16.402;2022-07-21T14:59:19;7.30;;;5.57;;
13309;SDS011;6723;48.256;16.402;2022-07-21T15:01:45;8.20;;;5.65;;
13309;SDS011;6723;48.256;16.402;2022-07-21T15:04:11;7.70;;;5.50;;
13309;SDS011;6723;48.256;16.402;2022-07-21T15:06:36;6.43;;;5.50;;
13309;SDS011;6723;48.256;16.402;2022-07-21T15:09:02;8.23;;;5.85;;
13309;SDS011;6723;48.256;16.402;2022-07-21T15:11:28;7.03;;;6.32;;
13309;SDS011;6723;48.256;16.402;2022-07-21T15:13:54;9.82;;;6.25;;
13309;SDS011;6723;48.256;16.402;2022-07-21T15:16:20;8.52;;;6.13;;
13309;SDS011;6723;48.256;16.402;2022-07-21T15:18:46;7.45;;;6.82;;
13309;SDS011;6723;48.256;16.402;2022-07-21T15:21:12;11.65;;;6.40;;
13309;SDS011;6723;48.256;16.402;2022-07-21T15:23:38;8.27;;;6.15;;
13309;SDS011;6723;48.256;16.402;2022-07-21T15:26:03;10.38;;;5.63;;
13309;SDS011;6723;48.256;16.402;2022-07-21T15:28:29;9.90;;;8.50;;
13309;SDS011;6723;48.256;16.402;2022-07-21T15:30:55;7.05;;;6.03;;
13309;SDS011;6723;48.256;16.402;2022-07-21T15:33:21;9.25;;;6.10;;
13309;SDS011;6723;48.256;16.402;2022-07-21T15:35:47;7.60;;;6.03;;
13309;SDS011;6723;48.256;16.402;2022-07-21T15:38:16;7.82;;;5.85;;
13309;SDS011;6723;48.256;16.402;2022-07-21T15:40:42;11.18;;;5.97;;
13309;SDS011;6723;48.256;16.402;2022-07-21T15:43:08;9.23;;;5.70;;
13309;SDS011;6723;48.256;16.402;2022-07-21T15:45:34;6.57;;;5.88;;